createdAt,value
2019-03-12T00:02:11.521Z,3.59
2019-03-12T00:04:41.489Z,3.46
2019-03-12T00:07:11.287Z,3.40
2019-03-12T00:09:41.113Z,3.30
2019-03-12T00:12:11.047Z,3.19
2019-03-12T00:14:43.776Z,3.14
2019-03-12T00:17:13.717Z,3.10
2019-03-12T00:19:43.522Z,3.08
2019-03-12T00:22:14.564Z,3.08
2019-03-12T00:24:44.839Z,3.08
2019-03-12T00:27:16.562Z,3.07
2019-03-12T00:29:48.586Z,3.01
2019-03-12T00:32:20.638Z,2.95
2019-03-12T00:34:54.967Z,2.92
2019-03-12T00:37:25.877Z,2.85
2019-03-12T00:39:57.946Z,2.78
2019-03-12T00:42:27.743Z,2.73
2019-03-12T00:45:00.082Z,2.71
2019-03-12T00:47:30.726Z,2.70
2019-03-12T00:50:11.250Z,2.71
2019-03-12T00:52:58.885Z,2.69
2019-03-12T00:55:30.772Z,2.65
2019-03-12T00:58:01.839Z,2.65
2019-03-12T01:00:37.349Z,2.67
2019-03-12T01:03:13.643Z,2.74
2019-03-12T01:05:45.716Z,2.72
2019-03-12T01:08:16.170Z,2.71
2019-03-12T01:10:46.397Z,2.71
2019-03-12T01:13:18.325Z,2.66
2019-03-12T01:15:48.233Z,2.68
2019-03-12T01:18:18.869Z,2.67
2019-03-12T01:20:50.926Z,2.67
2019-03-12T01:23:23.220Z,2.65
2019-03-12T01:26:00.076Z,2.59
2019-03-12T01:28:31.555Z,2.71
2019-03-12T01:31:01.551Z,2.68
2019-03-12T01:33:31.325Z,2.62
2019-03-12T01:36:01.484Z,2.65
2019-03-12T01:38:31.287Z,2.63
2019-03-12T01:41:01.234Z,2.60
2019-03-12T01:43:35.030Z,2.59
2019-03-12T01:46:05.497Z,2.62
2019-03-12T01:48:35.373Z,2.56
2019-03-12T01:51:06.091Z,2.55
2019-03-12T01:53:35.931Z,2.52
2019-03-12T01:56:06.297Z,2.58
2019-03-12T01:58:36.055Z,2.61
2019-03-12T02:01:05.863Z,2.60
2019-03-12T02:03:38.971Z,2.62
2019-03-12T02:06:09.300Z,2.64
2019-03-12T02:08:40.731Z,2.68
2019-03-12T02:11:12.031Z,2.73
2019-03-12T02:13:42.010Z,2.76
2019-03-12T02:16:15.706Z,2.80
2019-03-12T02:18:49.866Z,2.80
2019-03-12T02:21:20.859Z,2.68
2019-03-12T02:23:52.410Z,2.68
2019-03-12T02:26:26.001Z,2.63
2019-03-12T02:28:57.394Z,2.61
2019-03-12T02:31:34.572Z,2.60
2019-03-12T02:34:04.358Z,2.62
2019-03-12T02:36:37.490Z,2.57
2019-03-12T02:39:08.768Z,2.61
2019-03-12T02:41:45.007Z,2.54
2019-03-12T02:44:18.197Z,2.53
2019-03-12T02:46:48.104Z,2.40
2019-03-12T02:49:18.254Z,2.44
2019-03-12T02:51:48.080Z,2.42
2019-03-12T02:54:18.638Z,2.44
2019-03-12T02:56:48.487Z,2.43
2019-03-12T02:59:20.221Z,2.36
2019-03-12T03:01:50.034Z,2.33
2019-03-12T03:04:21.089Z,2.40
2019-03-12T03:06:53.278Z,2.38
2019-03-12T03:09:24.896Z,2.28
2019-03-12T03:11:54.861Z,2.31
2019-03-12T03:14:36.940Z,2.24
2019-03-12T03:17:08.662Z,2.20
2019-03-12T03:19:43.088Z,2.23
2019-03-12T03:22:12.810Z,2.25
2019-03-12T03:24:47.081Z,2.32
2019-03-12T03:27:21.003Z,2.29
2019-03-12T03:29:51.353Z,2.28
2019-03-12T03:32:21.130Z,2.23
2019-03-12T03:34:54.839Z,2.22
2019-03-12T03:37:24.604Z,2.12
2019-03-12T03:39:54.903Z,2.26
2019-03-12T03:42:24.974Z,2.13
2019-03-12T03:44:55.541Z,2.15
2019-03-12T03:47:25.469Z,2.17
2019-03-12T03:49:58.264Z,2.07
2019-03-12T03:52:36.197Z,1.93
2019-03-12T03:55:15.077Z,1.88
2019-03-12T03:57:45.918Z,1.72
2019-03-12T04:00:28.327Z,1.62
2019-03-12T04:03:00.802Z,1.62
2019-03-12T04:05:31.899Z,1.75
2019-03-12T04:08:02.365Z,1.82
2019-03-12T04:10:33.519Z,1.86
2019-03-12T04:13:08.350Z,1.89
2019-03-12T04:15:40.359Z,1.90
2019-03-12T04:18:16.662Z,1.86
2019-03-12T04:20:52.190Z,1.89
2019-03-12T04:23:24.522Z,1.88
2019-03-12T04:25:54.293Z,1.92
2019-03-12T04:28:27.793Z,1.82
2019-03-12T04:30:58.253Z,1.80
2019-03-12T04:34:01.643Z,1.79
2019-03-12T04:36:37.760Z,1.84
2019-03-12T04:39:09.060Z,1.88
2019-03-12T04:41:43.709Z,1.90
2019-03-12T04:44:15.089Z,1.97
2019-03-12T04:46:50.445Z,1.99
2019-03-12T04:49:25.700Z,1.98
2019-03-12T04:51:55.724Z,1.88
2019-03-12T04:54:27.199Z,1.75
2019-03-12T04:56:57.509Z,1.69
2019-03-12T04:59:27.321Z,1.67
2019-03-12T05:01:58.988Z,1.65
2019-03-12T05:04:29.746Z,1.60
2019-03-12T05:06:59.685Z,1.62
2019-03-12T05:09:29.645Z,1.62
2019-03-12T05:11:59.587Z,1.61
2019-03-12T05:14:37.046Z,1.69
2019-03-12T05:17:10.093Z,1.69
2019-03-12T05:19:41.586Z,1.62
2019-03-12T05:22:13.815Z,1.60
2019-03-12T05:24:44.107Z,1.59
2019-03-12T05:27:18.095Z,1.49
2019-03-12T05:29:51.106Z,1.53
2019-03-12T05:32:24.644Z,1.62
2019-03-12T05:34:58.766Z,1.60
2019-03-12T05:37:31.060Z,1.56
2019-03-12T05:40:05.349Z,1.49
2019-03-12T05:42:38.804Z,1.50
2019-03-12T05:45:14.347Z,1.74
2019-03-12T05:47:50.956Z,2.05
2019-03-12T05:50:21.960Z,2.38
2019-03-12T05:53:05.157Z,2.76
2019-03-12T05:55:34.986Z,3.02
2019-03-12T05:58:05.251Z,3.39
2019-03-12T06:00:38.148Z,3.86
2019-03-12T06:03:07.937Z,4.48
2019-03-12T06:05:41.494Z,4.74
2019-03-12T06:08:11.252Z,4.91
2019-03-12T06:10:42.280Z,5.22
2019-03-12T06:13:12.149Z,5.22
2019-03-12T06:15:42.021Z,5.52
2019-03-12T06:18:11.929Z,5.80
2019-03-12T06:20:44.035Z,6.09
2019-03-12T06:23:22.192Z,6.15
2019-03-12T06:25:53.278Z,6.20
2019-03-12T06:28:24.799Z,6.44
2019-03-12T06:31:11.833Z,7.01
2019-03-12T06:34:02.554Z,7.01
2019-03-12T06:36:43.804Z,7.06
2019-03-12T06:39:29.316Z,7.30
2019-03-12T06:42:04.215Z,7.65
2019-03-12T06:44:55.652Z,8.06
2019-03-12T06:47:36.323Z,8.47
2019-03-12T06:50:12.403Z,8.81
2019-03-12T06:52:43.759Z,8.82
2019-03-12T06:55:17.935Z,8.89
2019-03-12T06:58:02.340Z,9.35
2019-03-12T07:00:43.767Z,9.69
2019-03-12T07:03:32.931Z,9.98
2019-03-12T07:06:09.159Z,10.31
2019-03-12T07:08:46.886Z,10.55
2019-03-12T07:11:37.352Z,11.01
2019-03-12T07:14:18.221Z,11.27
2019-03-12T07:17:02.533Z,11.40
2019-03-12T07:19:52.535Z,11.88
2019-03-12T07:22:29.347Z,12.12
2019-03-12T07:25:15.628Z,12.28
2019-03-12T07:27:55.593Z,12.59
2019-03-12T07:30:32.630Z,12.90
2019-03-12T07:33:11.642Z,12.89
2019-03-12T07:35:48.548Z,13.11
2019-03-12T07:38:23.590Z,13.53
2019-03-12T07:41:23.562Z,13.52
2019-03-12T07:43:47.637Z,14.02
2019-03-12T07:46:26.628Z,14.22
2019-03-12T07:49:18.297Z,14.24
2019-03-12T07:51:50.954Z,14.48
2019-03-12T07:54:32.994Z,14.93
2019-03-12T07:57:22.192Z,14.87
2019-03-12T08:00:06.347Z,14.54
2019-03-12T08:02:58.890Z,14.46
2019-03-12T08:05:39.051Z,14.13
2019-03-12T08:08:23.894Z,14.39
2019-03-12T08:10:58.606Z,14.72
2019-03-12T08:13:33.824Z,14.74
2019-03-12T08:16:06.474Z,14.70
2019-03-12T08:19:02.082Z,14.78
2019-03-12T08:21:41.196Z,14.15
2019-03-12T08:24:22.605Z,14.15
2019-03-12T08:27:10.079Z,14.43
2019-03-12T08:29:42.467Z,14.61
2019-03-12T08:32:23.735Z,15.01
2019-03-12T08:34:57.234Z,14.59
2019-03-12T08:37:39.259Z,14.49
2019-03-12T08:40:17.359Z,14.41
2019-03-12T08:42:55.093Z,14.87
2019-03-12T08:45:30.897Z,14.72
2019-03-12T08:51:07.947Z,14.85
2019-03-12T08:53:41.434Z,14.97
2019-03-12T08:56:21.494Z,15.03
2019-03-12T08:58:56.308Z,15.54
2019-03-12T09:01:47.385Z,15.63
2019-03-12T09:04:19.438Z,15.25
2019-03-12T09:06:55.500Z,15.59
2019-03-12T09:09:37.717Z,15.84
2019-03-12T09:12:17.010Z,15.81
2019-03-12T09:14:50.068Z,15.78
2019-03-12T09:17:28.205Z,16.21
2019-03-12T09:20:02.156Z,15.89
2019-03-12T09:22:40.436Z,16.01
2019-03-12T09:25:25.329Z,15.82
2019-03-12T09:28:08.610Z,15.50
2019-03-12T09:30:44.173Z,15.35
2019-03-12T09:33:23.612Z,15.41
2019-03-12T09:36:10.103Z,16.12
2019-03-12T09:38:42.493Z,15.63
2019-03-12T09:41:17.863Z,15.10
2019-03-12T09:43:55.643Z,15.02
2019-03-12T09:46:42.509Z,15.13
2019-03-12T09:49:15.180Z,16.01
2019-03-12T09:51:54.145Z,14.84
2019-03-12T09:54:26.493Z,15.23
2019-03-12T09:57:10.953Z,15.75
2019-03-12T09:59:43.326Z,16.12
2019-03-12T10:02:19.716Z,15.35
2019-03-12T10:04:54.839Z,15.60
2019-03-12T10:07:27.064Z,15.55
2019-03-12T10:10:03.486Z,15.64
2019-03-12T10:12:41.149Z,15.63
2019-03-12T10:15:18.028Z,15.70
2019-03-12T10:18:02.686Z,15.34
2019-03-12T10:20:35.414Z,15.58
2019-03-12T10:23:11.967Z,15.88
2019-03-12T10:25:53.074Z,15.80
2019-03-12T10:28:40.793Z,16.23
2019-03-12T10:31:13.358Z,16.33
2019-03-12T10:33:48.488Z,16.07
2019-03-12T10:36:35.256Z,16.68
2019-03-12T10:39:47.736Z,16.59
2019-03-12T10:42:23.053Z,16.44
2019-03-12T10:45:10.260Z,15.69
2019-03-12T10:47:45.326Z,15.76
2019-03-12T10:50:17.731Z,16.52
2019-03-12T10:52:49.413Z,16.95
2019-03-12T10:55:21.637Z,16.50
2019-03-12T10:57:53.463Z,16.46
2019-03-12T11:00:25.009Z,15.73
2019-03-12T11:02:55.244Z,16.11
2019-03-12T11:05:27.848Z,16.36
2019-03-12T11:07:58.721Z,16.08
2019-03-12T11:10:30.536Z,16.59
2019-03-12T11:13:03.336Z,16.63
2019-03-12T11:15:33.635Z,16.71
2019-03-12T11:18:05.071Z,16.82
2019-03-12T11:20:37.682Z,16.89
2019-03-12T11:23:10.076Z,17.52
2019-03-12T11:25:44.093Z,17.43
2019-03-12T11:28:34.124Z,17.74
2019-03-12T11:31:12.371Z,17.85
2019-03-12T11:33:43.570Z,17.83
2019-03-12T11:36:14.145Z,17.86
2019-03-12T11:38:44.641Z,17.79
2019-03-12T11:41:15.513Z,17.48
2019-03-12T11:43:46.462Z,16.95
2019-03-12T11:46:17.631Z,17.65
2019-03-12T11:48:49.341Z,17.14
2019-03-12T11:51:21.407Z,16.42
2019-03-12T11:53:57.265Z,17.25
2019-03-12T11:56:30.207Z,17.30
2019-03-12T11:59:02.440Z,16.48
2019-03-12T12:01:33.727Z,16.39
2019-03-12T12:04:06.176Z,16.30
2019-03-12T12:06:42.561Z,16.82
2019-03-12T12:09:12.012Z,17.16
2019-03-12T12:11:43.993Z,17.24
2019-03-12T12:14:16.001Z,16.89
2019-03-12T12:16:47.433Z,16.32
2019-03-12T12:19:18.588Z,16.63
2019-03-12T12:21:51.233Z,16.69
2019-03-12T12:24:22.636Z,16.70
2019-03-12T12:26:53.753Z,16.17
2019-03-12T12:29:24.657Z,16.10
2019-03-12T12:31:56.411Z,15.69
2019-03-12T12:34:29.494Z,16.44
2019-03-12T12:37:02.498Z,17.20
2019-03-12T12:39:40.853Z,16.67
2019-03-12T12:42:24.127Z,16.84
2019-03-12T12:45:00.855Z,16.73
2019-03-12T12:47:42.429Z,16.37
2019-03-12T12:50:32.772Z,16.86
2019-03-12T12:53:17.568Z,17.42
2019-03-12T12:55:56.090Z,16.99
2019-03-12T12:58:43.360Z,16.80
2019-03-12T13:01:38.398Z,16.76
2019-03-12T13:04:04.119Z,16.23
2019-03-12T13:06:38.771Z,16.05
2019-03-12T13:09:28.335Z,16.31
2019-03-12T13:12:02.919Z,16.36
2019-03-12T13:14:41.760Z,14.42
2019-03-12T13:17:21.477Z,15.30
2019-03-12T13:19:58.953Z,15.17
2019-03-12T13:22:36.999Z,15.60
2019-03-12T13:25:15.032Z,16.55
2019-03-12T13:27:56.621Z,15.41
2019-03-12T13:30:43.576Z,14.51
2019-03-12T13:33:20.311Z,15.48
2019-03-12T13:36:04.103Z,16.54
2019-03-12T13:38:46.913Z,16.38
2019-03-12T13:41:28.767Z,14.01
2019-03-12T13:44:09.801Z,14.28
2019-03-12T13:46:54.938Z,13.99
2019-03-12T13:49:30.965Z,13.87
2019-03-12T13:52:13.009Z,14.02
2019-03-12T13:55:08.302Z,14.61
2019-03-12T13:57:44.916Z,15.20
2019-03-12T14:00:25.657Z,14.70
2019-03-12T14:03:10.665Z,13.56
2019-03-12T14:05:50.035Z,12.78
2019-03-12T14:08:32.936Z,14.14
2019-03-12T14:11:06.803Z,14.66
2019-03-12T14:13:44.516Z,15.24
2019-03-12T14:16:16.278Z,13.64
2019-03-12T14:18:46.767Z,12.97
2019-03-12T14:21:21.906Z,13.08
2019-03-12T14:24:09.290Z,12.85
2019-03-12T14:26:42.274Z,12.85
2019-03-12T14:29:13.449Z,12.37
2019-03-12T14:31:45.454Z,12.33
2019-03-12T14:34:17.077Z,12.23
2019-03-12T14:36:48.938Z,11.86
2019-03-12T14:39:20.573Z,11.72
2019-03-12T14:41:52.316Z,11.62
2019-03-12T14:44:23.394Z,11.62
2019-03-12T14:46:57.446Z,11.88
2019-03-12T14:49:30.496Z,11.98
2019-03-12T14:52:05.827Z,11.95
2019-03-12T14:54:39.161Z,11.93
2019-03-12T14:57:09.473Z,11.84
2019-03-12T14:59:40.034Z,11.72
2019-03-12T15:02:11.051Z,11.77
2019-03-12T15:04:42.238Z,11.82
2019-03-12T15:07:14.772Z,11.88
2019-03-12T15:09:45.987Z,11.83
2019-03-12T15:12:18.322Z,11.69
2019-03-12T15:14:53.129Z,11.82
2019-03-12T15:17:25.277Z,11.71
2019-03-12T15:19:58.521Z,11.68
2019-03-12T15:22:31.423Z,11.58
2019-03-12T15:25:05.597Z,11.51
2019-03-12T15:27:43.570Z,11.48
2019-03-12T15:30:23.158Z,11.53
2019-03-12T15:32:57.240Z,11.55
2019-03-12T15:35:32.297Z,11.53
2019-03-12T15:38:07.686Z,11.44
2019-03-12T15:40:42.190Z,11.44
2019-03-12T15:43:16.157Z,11.38
2019-03-12T15:45:49.494Z,11.28
2019-03-12T15:48:24.859Z,11.27
2019-03-12T15:50:59.340Z,11.24
2019-03-12T15:53:35.897Z,11.25
2019-03-12T15:56:08.890Z,11.30
2019-03-12T15:58:42.825Z,11.35
2019-03-12T16:01:18.964Z,11.33
2019-03-12T16:03:50.888Z,11.42
2019-03-12T16:06:26.390Z,11.32
2019-03-12T16:08:59.732Z,11.17
2019-03-12T16:11:34.606Z,11.12
2019-03-12T16:14:07.314Z,11.06
2019-03-12T16:16:41.612Z,11.14
2019-03-12T16:19:13.902Z,11.05
2019-03-12T16:21:46.226Z,10.93
2019-03-12T16:24:20.169Z,10.72
2019-03-12T16:26:54.796Z,10.52
2019-03-12T16:29:28.776Z,10.53
2019-03-12T16:32:00.687Z,10.40
2019-03-12T16:34:36.380Z,10.45
2019-03-12T16:37:08.990Z,10.57
2019-03-12T16:39:40.535Z,10.51
2019-03-12T16:42:10.741Z,10.35
2019-03-12T16:44:42.441Z,10.32
2019-03-12T16:47:13.085Z,10.33
2019-03-12T16:49:45.107Z,10.34
2019-03-12T16:52:16.727Z,10.32
2019-03-12T16:54:51.454Z,10.36
2019-03-12T16:57:23.171Z,10.28
2019-03-12T16:59:54.387Z,10.26
2019-03-12T17:02:26.364Z,10.12
2019-03-12T17:04:59.343Z,10.04
2019-03-12T17:07:32.398Z,10.04
2019-03-12T17:10:05.342Z,10.04
2019-03-12T17:12:39.629Z,10.03
2019-03-12T17:15:19.704Z,10.01
2019-03-12T17:17:59.580Z,9.94
2019-03-12T17:20:44.547Z,9.92
2019-03-12T17:23:21.347Z,9.75
2019-03-12T17:25:57.105Z,9.66
2019-03-12T17:28:33.123Z,9.48
2019-03-12T17:31:11.053Z,9.34
2019-03-12T17:33:44.637Z,9.30
2019-03-12T17:36:18.450Z,9.31
2019-03-12T17:38:52.018Z,9.17
2019-03-12T17:41:24.097Z,9.10
2019-03-12T17:44:01.041Z,9.09
2019-03-12T17:46:36.416Z,9.07
2019-03-12T17:49:08.805Z,9.14
2019-03-12T17:51:42.302Z,9.14
2019-03-12T17:54:31.926Z,9.04
2019-03-12T17:57:04.405Z,9.06
2019-03-12T17:59:37.289Z,8.85
2019-03-12T18:02:10.329Z,8.72
2019-03-12T18:04:41.827Z,8.71
2019-03-12T18:07:14.860Z,8.69
2019-03-12T18:09:47.271Z,8.56
2019-03-12T18:12:21.867Z,8.62
2019-03-12T18:14:56.658Z,8.53
2019-03-12T18:17:30.442Z,8.33
2019-03-12T18:20:04.761Z,8.24
2019-03-12T18:22:39.214Z,8.09
2019-03-12T18:25:25.138Z,7.86
2019-03-12T18:28:01.894Z,7.81
2019-03-12T18:30:40.894Z,7.78
2019-03-12T18:33:29.107Z,7.88
2019-03-12T18:36:08.227Z,7.76
2019-03-12T18:38:55.005Z,7.86
2019-03-12T18:41:43.658Z,7.94
2019-03-12T18:44:26.449Z,7.81
2019-03-12T18:47:06.215Z,7.72
2019-03-12T18:49:48.441Z,7.67
2019-03-12T18:52:28.067Z,7.72
2019-03-12T18:55:22.228Z,7.47
2019-03-12T18:58:06.047Z,7.39
2019-03-12T19:00:51.646Z,7.62
2019-03-12T19:03:33.913Z,7.62
2019-03-12T19:06:18.818Z,7.88
2019-03-12T19:09:02.332Z,7.88
2019-03-12T19:11:48.788Z,8.29
2019-03-12T19:14:26.899Z,8.29
2019-03-12T19:17:05.450Z,8.55
2019-03-12T19:19:43.393Z,8.63
2019-03-12T19:22:29.519Z,8.47
2019-03-12T19:25:17.725Z,8.50
2019-03-12T19:28:13.643Z,8.54
2019-03-12T19:30:58.191Z,8.57
2019-03-12T19:33:40.609Z,8.48
2019-03-12T19:36:18.027Z,8.28
2019-03-12T19:39:00.194Z,8.01
2019-03-12T19:41:49.571Z,7.84
2019-03-12T19:44:29.149Z,7.94
2019-03-12T19:47:15.600Z,7.91
2019-03-12T19:49:53.213Z,8.03
2019-03-12T19:52:39.815Z,8.01
2019-03-12T19:55:23.537Z,7.66
2019-03-12T19:58:06.750Z,7.55
2019-03-12T20:00:48.243Z,7.33
2019-03-12T20:03:28.185Z,7.07
2019-03-12T20:06:19.074Z,6.85
2019-03-12T20:09:09.922Z,6.97
2019-03-12T20:11:59.474Z,7.10
2019-03-12T20:14:58.440Z,7.10
2019-03-12T20:18:14.887Z,6.89
2019-03-12T20:20:59.982Z,6.63
2019-03-12T20:23:59.411Z,6.49
2019-03-12T20:26:48.162Z,6.41
2019-03-12T20:30:09.341Z,6.31
2019-03-12T20:33:21.307Z,6.29
2019-03-12T20:36:31.293Z,6.13
2019-03-12T20:39:39.278Z,6.05
2019-03-12T20:42:37.748Z,6.02
2019-03-12T20:45:19.860Z,6.01
2019-03-12T20:48:11.709Z,5.93
2019-03-12T20:51:19.067Z,5.83
2019-03-12T20:54:00.333Z,5.76
2019-03-12T20:57:19.601Z,5.82
2019-03-12T21:00:47.306Z,5.67
2019-03-12T21:03:51.659Z,5.66
2019-03-12T21:07:14.356Z,5.67
2019-03-12T21:10:21.721Z,5.61
2019-03-12T21:13:39.323Z,5.42
2019-03-12T21:16:37.905Z,5.32
2019-03-12T21:19:54.232Z,5.60
2019-03-12T21:23:03.347Z,5.60
2019-03-12T21:26:24.975Z,5.59
2019-03-12T21:29:30.529Z,5.24
2019-03-12T21:32:22.667Z,5.24
2019-03-12T21:35:12.931Z,5.10
2019-03-12T21:38:08.957Z,4.85
2019-03-12T21:40:59.340Z,4.63
2019-03-12T21:43:52.879Z,4.63
2019-03-12T21:46:40.377Z,4.41
2019-03-12T21:49:38.425Z,4.24
2019-03-12T21:52:31.242Z,4.15
2019-03-12T21:55:12.689Z,3.89
2019-03-12T21:57:56.337Z,3.66
2019-03-12T22:00:42.449Z,3.62
2019-03-12T22:03:34.264Z,3.48
2019-03-12T22:06:35.522Z,3.48
2019-03-12T22:09:28.648Z,3.37
2019-03-12T22:12:29.065Z,3.52
2019-03-12T22:15:22.570Z,3.26
2019-03-12T22:18:14.969Z,3.26
2019-03-12T22:21:10.611Z,3.22
2019-03-12T22:24:01.538Z,3.15
2019-03-12T22:27:09.460Z,3.18
2019-03-12T22:30:05.452Z,3.15
2019-03-12T22:32:59.957Z,3.08
2019-03-12T22:35:48.050Z,3.29
2019-03-12T22:38:33.456Z,3.36
2019-03-12T22:41:10.498Z,3.47
2019-03-12T22:43:58.925Z,3.61
2019-03-12T22:46:33.543Z,3.49
2019-03-12T22:49:12.342Z,3.23
2019-03-12T22:51:58.419Z,3.14
2019-03-12T22:54:32.836Z,3.29
2019-03-12T22:57:25.802Z,3.43
2019-03-12T23:00:34.960Z,3.48
2019-03-12T23:03:30.560Z,3.68
2019-03-12T23:06:45.221Z,3.66
2019-03-12T23:10:02.290Z,3.79
2019-03-12T23:12:57.162Z,3.79
2019-03-12T23:15:52.399Z,3.99
2019-03-12T23:18:45.161Z,4.16
2019-03-12T23:21:17.873Z,4.01
2019-03-12T23:24:08.864Z,3.73
2019-03-12T23:26:50.401Z,3.50
2019-03-12T23:29:33.427Z,3.31
2019-03-12T23:32:27.252Z,3.08
2019-03-12T23:34:59.227Z,2.99
2019-03-12T23:37:31.578Z,3.00
2019-03-12T23:40:17.125Z,2.98
2019-03-12T23:42:58.495Z,2.80
2019-03-12T23:45:29.279Z,2.55
2019-03-12T23:48:00.358Z,2.52
2019-03-12T23:50:37.507Z,2.61
2019-03-12T23:53:26.267Z,3.15
2019-03-12T23:56:00.042Z,3.38
2019-03-12T23:58:32.952Z,3.36
